DGLW weather

Wa Airport
Wa, Upper West Region, Ghana

Public forecast

Using degrees Celsius for public forecast. Weather courtesy of forecast.io.

Closest aviation weather report (METAR) to Wa Airport

Report is more than 6 hours old.

Closest report is Gaoua Airport, 42.8 nm (79.2 km) WNW. Retrieved 2009/09/21 17:00 UTC (11 years ago):

DFOG 211700Z 18004KT 9999 FEW020 FEW040CB NW NE BKN260 30/23

Closest aviation forecast (TAF) to Wa Airport

Closest forecast is Bobo Dioulasso Airport, 125.5 nm (232.5 km) WNW. Retrieved 2020-05-26 00:12 UTC (6 hours ago):

TAF DFOO 252300Z 2600/2624 22008KT 9999 FEW020 TEMPO 2614/2624 09025G45KT 2500 SQ BLDU TSRA SCT020 SCT033CB